createdAt,value
2022-11-04T00:10:58.089Z,4.90
2022-11-04T00:30:57.826Z,8.60
2022-11-04T00:50:57.551Z,6.60
2022-11-04T01:10:57.238Z,8.40
2022-11-04T01:30:57.045Z,10.20
2022-11-04T01:50:56.676Z,8.90
2022-11-04T02:10:56.483Z,7.90
2022-11-04T02:30:57.115Z,8.20
2022-11-04T02:50:55.806Z,6.70
2022-11-04T03:10:55.549Z,9.50
2022-11-04T03:30:55.299Z,6.40
2022-11-04T03:50:55.086Z,2.40
2022-11-04T04:10:54.693Z,1.40
2022-11-04T04:31:00.031Z,2.80
2022-11-04T04:50:54.193Z,2.60
2022-11-04T05:10:53.818Z,3.50
2022-11-04T05:30:53.564Z,3.10
2022-11-04T05:50:53.277Z,4.30
2022-11-04T06:10:52.992Z,1.60
2022-11-04T06:30:52.792Z,2.90
2022-11-04T06:50:52.459Z,3.50
2022-11-04T07:10:52.156Z,2.90
2022-11-04T07:30:51.913Z,2.20
2022-11-04T07:50:51.798Z,1.20
2022-11-04T08:10:51.354Z,2.40
2022-11-04T08:30:51.075Z,1.80
2022-11-04T08:50:50.789Z,0.80
2022-11-04T09:10:50.526Z,1.40
2022-11-04T09:30:50.257Z,1.10
2022-11-04T09:50:49.950Z,0.60
2022-11-04T10:10:49.664Z,0.70
2022-11-04T10:30:49.415Z,0.80
2022-11-04T10:50:50.140Z,1.80
2022-11-04T11:10:49.837Z,2.10
2022-11-04T11:30:48.566Z,1.10
2022-11-04T11:50:48.291Z,1.10
2022-11-04T12:10:52.320Z,1.70
2022-11-04T12:30:47.730Z,0.60
2022-11-04T12:50:47.442Z,0.40
2022-11-04T13:10:47.177Z,0.40
2022-11-04T13:30:46.875Z,0.70
2022-11-04T13:50:46.621Z,0.90
2022-11-04T14:10:46.312Z,0.80
2022-11-04T14:30:46.054Z,0.50
2022-11-04T14:50:45.751Z,0.60
2022-11-04T15:10:45.477Z,1.00
2022-11-04T15:30:45.205Z,2.00
2022-11-04T15:50:44.981Z,1.20
2022-11-04T16:10:44.717Z,1.60
2022-11-04T16:30:44.364Z,1.60
2022-11-04T16:50:44.112Z,3.00
2022-11-04T17:10:43.805Z,1.60
2022-11-04T17:30:43.536Z,1.90
2022-11-04T17:50:43.241Z,2.20
2022-11-04T18:10:43.196Z,2.20
2022-11-04T18:30:42.713Z,3.60
2022-11-04T18:50:42.449Z,3.80
2022-11-04T19:11:00.109Z,2.80
2022-11-04T19:30:41.890Z,1.60
2022-11-04T19:50:41.617Z,3.50
2022-11-04T20:10:41.338Z,2.90
2022-11-04T20:30:41.062Z,1.70
2022-11-04T20:50:40.818Z,1.80
2022-11-04T21:10:40.562Z,1.70
2022-11-04T21:30:40.241Z,2.10
2022-11-04T21:50:39.998Z,4.10
2022-11-04T22:10:39.699Z,4.50
2022-11-04T22:30:39.427Z,2.60
2022-11-04T22:50:39.140Z,2.60
2022-11-04T23:10:38.859Z,2.70
2022-11-04T23:30:38.572Z,4.20
2022-11-04T23:50:38.293Z,3.10
